Time;durP1;ratioP1;P1;durP2;ratioP2;P2;SDS_P1;SDS_P2;PMS_P1;PMS_P2;Temp;Humidity;BMP_temperature;BMP_pressure;BME280_temperature;BME280_humidity;BME280_pressure;Samples;Min_cycle;Max_cycle;Signal;HPM_P1;HPM_P2
2024/02/29 00:02:16;;;;;;;13.60;10.40;;;;;;;15.58;90.22;100449.13;5114581;28;20463;-86
2024/02/29 00:05:20;;;;;;;11.75;10.05;;;;;;;15.72;89.60;100450.38;5101981;28;20040;-92
2024/02/29 00:08:27;;;;;;;15.27;9.10;;;;;;;15.68;89.61;100440.88;5113396;28;20432;-85
2024/02/29 00:11:31;;;;;;;12.73;9.73;;;;;;;15.58;90.65;100449.13;5114506;28;20423;-86
2024/02/29 00:14:37;;;;;;;14.52;10.85;;;;;;;15.57;90.06;100446.59;5114375;28;20062;-79
2024/02/29 00:17:41;;;;;;;18.05;11.40;;;;;;;15.53;90.59;100442.50;5113432;28;20040;-83
2024/02/29 00:20:46;;;;;;;15.57;11.43;;;;;;;15.69;89.92;100437.16;5113932;28;20446;-84
2024/02/29 00:23:50;;;;;;;12.90;11.05;;;;;;;15.54;90.25;100449.63;5114221;28;20142;-85
2024/02/29 00:26:55;;;;;;;13.98;10.95;;;;;;;15.53;90.45;100453.34;5113121;28;20036;-82
2024/02/29 00:29:59;;;;;;;18.00;12.68;;;;;;;15.59;89.80;100458.94;5117266;28;20044;-80
2024/02/29 00:33:04;;;;;;;15.10;11.23;;;;;;;15.63;89.78;100475.69;5121551;28;20044;-85
2024/02/29 00:36:09;;;;;;;20.98;11.60;;;;;;;15.57;89.95;100460.13;5120362;28;20366;-87
2024/02/29 00:39:13;;;;;;;17.88;11.90;;;;;;;15.64;89.77;100450.34;5114307;28;20047;-84
2024/02/29 00:42:18;;;;;;;19.75;13.38;;;;;;;15.54;89.91;100444.22;5114064;28;20040;-85
2024/02/29 00:45:22;;;;;;;19.88;12.05;;;;;;;15.72;89.32;100453.06;5113857;28;20413;-88
2024/02/29 00:48:27;;;;;;;16.58;12.02;;;;;;;15.69;89.47;100447.13;5113981;28;20451;-88
2024/02/29 00:51:32;;;;;;;15.05;11.93;;;;;;;15.52;90.30;100446.25;5113461;28;20047;-87
2024/02/29 00:54:37;;;;;;;16.50;12.38;;;;;;;15.59;89.75;100439.16;5113839;28;20044;-86
2024/02/29 00:57:41;;;;;;;18.70;12.35;;;;;;;15.46;90.33;100430.66;5101313;28;20044;-85
2024/02/29 01:00:46;;;;;;;17.58;12.02;;;;;;;15.44;90.62;100430.78;5113864;28;20354;-87
2024/02/29 01:03:50;;;;;;;19.60;12.20;;;;;;;15.22;91.35;100430.53;5113643;28;20044;-83
2024/02/29 01:06:56;;;;;;;19.67;12.50;;;;;;;15.56;89.91;100450.31;5113818;28;20040;-88
2024/02/29 01:10:01;;;;;;;18.67;12.48;;;;;;;15.15;91.67;100480.88;5113858;28;20043;-81
2024/02/29 01:13:06;;;;;;;19.90;13.18;;;;;;;15.31;91.21;100487.19;5113695;28;20474;-89
2024/02/29 01:16:10;;;;;;;21.92;15.15;;;;;;;15.42;90.42;100481.53;5113432;28;20047;-89
2024/02/29 01:19:15;;;;;;;17.15;12.90;;;;;;;15.56;89.76;100458.41;5113688;28;20032;-87
2024/02/29 01:22:19;;;;;;;16.80;12.98;;;;;;;15.67;89.42;100425.66;5113565;28;20047;-90
2024/02/29 01:25:24;;;;;;;19.95;12.80;;;;;;;15.68;89.42;100427.34;5113260;28;20043;-88
2024/02/29 01:28:29;;;;;;;27.75;15.02;;;;;;;15.38;90.69;100434.13;5114252;28;20044;-87
2024/02/29 01:31:34;;;;;;;18.33;13.35;;;;;;;15.74;89.17;100415.00;5117276;28;20048;-88
2024/02/29 01:34:38;;;;;;;17.50;13.63;;;;;;;15.91;87.54;100403.19;5117307;28;20043;-88
2024/02/29 01:37:42;;;;;;;18.27;13.32;;;;;;;15.93;88.06;100395.75;5117303;28;20047;-88
2024/02/29 01:40:47;;;;;;;18.88;13.13;;;;;;;15.94;87.58;100403.72;5117104;28;20043;-83
2024/02/29 01:43:55;;;;;;;21.40;14.38;;;;;;;16.19;86.44;100404.56;5117029;28;20387;-88
2024/02/29 01:47:00;;;;;;;17.00;13.48;;;;;;;16.00;87.37;100399.47;5116953;28;20043;-89
2024/02/29 01:50:08;;;;;;;20.88;13.70;;;;;;;15.91;87.91;100398.63;5116840;28;20401;-84
2024/02/29 01:53:13;;;;;;;22.55;14.10;;;;;;;16.14;86.59;100394.25;5116824;28;20382;-88
2024/02/29 01:56:19;;;;;;;18.85;12.68;;;;;;;16.30;86.29;100404.22;5116691;28;20039;-88
2024/02/29 01:59:26;;;;;;;21.17;14.63;;;;;;;16.24;86.46;100399.50;5116882;28;20048;-86
2024/02/29 02:02:31;;;;;;;16.27;13.75;;;;;;;15.77;88.50;100395.72;5116637;28;20036;-90
2024/02/29 02:05:36;;;;;;;17.77;12.50;;;;;;;15.52;89.59;100401.09;5116853;28;20466;-87
2024/02/29 02:08:40;;;;;;;17.40;12.77;;;;;;;15.67;89.39;100395.03;5116770;28;20390;-88
2024/02/29 02:11:45;;;;;;;16.88;12.55;;;;;;;15.56;89.24;100393.50;5103340;28;20044;-89
2024/02/29 02:14:50;;;;;;;23.17;13.70;;;;;;;15.43;89.68;100382.28;5116235;28;20044;-89
2024/02/29 02:17:54;;;;;;;20.55;12.88;;;;;;;15.48;89.36;100388.09;5116461;28;20047;-89
2024/02/29 02:20:59;;;;;;;21.10;13.40;;;;;;;15.57;89.33;100382.50;5116336;28;20044;-88
2024/02/29 02:24:03;;;;;;;20.92;14.10;;;;;;;15.44;88.84;100367.72;5116273;28;20052;-90
2024/02/29 02:27:08;;;;;;;17.48;12.18;;;;;;;15.48;89.42;100367.25;5116152;28;20039;-89
2024/02/29 02:30:13;;;;;;;17.35;13.27;;;;;;;15.52;89.52;100375.91;5116269;28;20036;-77
2024/02/29 02:33:19;;;;;;;20.65;13.82;;;;;;;15.50;89.26;100373.34;5115607;28;20051;-90
2024/02/29 02:36:24;;;;;;;15.02;13.23;;;;;;;15.40;89.13;100363.66;5116024;28;20076;-87
2024/02/29 02:39:29;;;;;;;15.98;13.30;;;;;;;15.52;88.68;100356.97;5115730;28;20382;-88
2024/02/29 02:42:33;;;;;;;19.95;12.75;;;;;;;15.50;88.72;100350.88;5115791;28;20051;-87
2024/02/29 02:45:38;;;;;;;19.08;13.20;;;;;;;15.53;88.92;100342.41;5115714;28;20039;-89
2024/02/29 02:48:42;;;;;;;19.92;14.13;;;;;;;15.49;88.71;100338.34;5115575;28;20044;-89
2024/02/29 02:51:47;;;;;;;19.88;13.90;;;;;;;15.46;89.17;100338.69;5115012;28;20487;-86
2024/02/29 02:54:53;;;;;;;17.85;13.38;;;;;;;15.63;88.77;100341.25;5115510;28;20048;-85
2024/02/29 02:57:57;;;;;;;19.67;14.00;;;;;;;15.36;89.38;100343.34;5115484;28;20051;-84
2024/02/29 03:01:01;;;;;;;20.50;13.55;;;;;;;15.32;89.78;100332.03;5115879;28;20043;-89
2024/02/29 03:04:06;;;;;;;17.02;12.15;;;;;;;15.17;90.40;100330.13;5115336;28;20047;-88
2024/02/29 03:07:11;;;;;;;21.52;13.50;;;;;;;15.37;89.43;100318.00;5115343;28;20036;-86
2024/02/29 03:10:15;;;;;;;22.58;13.90;;;;;;;15.44;89.46;100332.56;5115565;28;20039;-87
2024/02/29 03:13:20;;;;;;;19.67;14.25;;;;;;;15.40;89.28;100323.09;5115549;28;20047;-88
2024/02/29 03:16:25;;;;;;;16.70;12.77;;;;;;;15.43;89.15;100325.47;5114991;28;20047;-89
2024/02/29 03:19:30;;;;;;;17.52;13.48;;;;;;;15.63;88.68;100315.22;5115079;28;20048;-88
2024/02/29 03:22:35;;;;;;;15.20;12.35;;;;;;;15.29;89.75;100326.94;5115290;28;20067;-87
2024/02/29 03:25:39;;;;;;;17.17;12.75;;;;;;;15.31;89.97;100313.25;5115075;28;20386;-90
2024/02/29 03:28:43;;;;;;;19.90;12.85;;;;;;;15.37;89.57;100304.50;5114988;28;20047;-86
2024/02/29 03:31:49;;;;;;;16.42;12.50;;;;;;;15.23;89.78;100303.28;5114808;28;20043;-82
2024/02/29 03:34:54;;;;;;;16.42;13.15;;;;;;;15.33;89.70;100305.84;5102302;28;20044;-84
2024/02/29 03:37:58;;;;;;;18.63;13.88;;;;;;;15.50;88.76;100308.41;5114746;28;20367;-89
2024/02/29 03:41:06;;;;;;;16.70;13.07;;;;;;;15.46;88.71;100296.25;5114627;28;20047;-86
2024/02/29 03:44:10;;;;;;;19.80;14.30;;;;;;;15.43;88.99;100299.25;5102309;28;20043;-87
2024/02/29 03:47:15;;;;;;;16.70;12.45;;;;;;;15.26;89.32;100296.69;5114408;28;20044;-89
2024/02/29 03:50:19;;;;;;;17.35;12.88;;;;;;;15.34;89.44;100291.28;5113984;28;20478;-91
2024/02/29 03:53:23;;;;;;;20.15;13.77;;;;;;;15.44;88.98;100282.00;5101751;28;20059;-86
2024/02/29 03:56:28;;;;;;;18.70;13.82;;;;;;;15.42;89.04;100289.47;5114317;28;20370;-90
2024/02/29 03:59:33;;;;;;;17.30;13.15;;;;;;;15.25;89.60;100286.88;5114225;28;20482;-88
2024/02/29 04:02:38;;;;;;;19.05;14.07;;;;;;;15.26;89.30;100286.72;5114241;28;20039;-88
2024/02/29 04:05:43;;;;;;;15.85;12.77;;;;;;;15.26;89.34;100278.59;5114548;28;20039;-86
2024/02/29 04:08:47;;;;;;;26.13;14.90;;;;;;;15.27;89.31;100284.84;5101939;28;20048;-89
2024/02/29 04:11:52;;;;;;;24.00;13.70;;;;;;;15.33;88.84;100286.91;5114856;28;20048;-88
2024/02/29 04:14:57;;;;;;;20.42;13.85;;;;;;;15.22;89.52;100287.22;5114539;28;20379;-89
2024/02/29 04:18:03;;;;;;;19.38;13.77;;;;;;;15.08;90.46;100280.59;5114430;28;20147;-86
2024/02/29 04:21:08;;;;;;;22.17;12.90;;;;;;;14.98;91.02;100290.72;5114486;28;20052;-92
2024/02/29 04:24:13;;;;;;;16.85;11.95;;;;;;;14.74;90.89;100288.75;5114175;28;20398;-90
2024/02/29 04:27:18;;;;;;;20.20;13.20;;;;;;;15.24;90.19;100296.00;5112984;28;20039;-88
2024/02/29 04:30:23;;;;;;;16.35;11.60;;;;;;;15.12;89.83;100290.06;5114425;28;20052;-88
2024/02/29 04:33:27;;;;;;;17.23;12.57;;;;;;;15.19;90.45;100288.38;5114304;28;20047;-88
2024/02/29 04:36:32;;;;;;;20.83;13.13;;;;;;;15.18;90.18;100291.28;5114221;28;20043;-91
2024/02/29 04:39:36;;;;;;;17.58;13.52;;;;;;;15.28;89.32;100295.50;5114452;28;20048;-86
2024/02/29 04:42:41;;;;;;;19.13;12.35;;;;;;;15.40;88.78;100290.63;5114092;28;20039;-88
2024/02/29 04:45:46;;;;;;;18.58;12.48;;;;;;;15.32;88.98;100294.16;5114035;28;20047;-91
2024/02/29 04:48:50;;;;;;;16.73;11.60;;;;;;;15.19;89.60;100285.69;5114362;28;20035;-90
2024/02/29 04:51:54;;;;;;;14.23;12.27;;;;;;;15.14;89.89;100288.03;5113723;28;20048;-88
2024/02/29 04:54:59;;;;;;;24.13;14.52;;;;;;;14.99;89.81;100295.94;5114504;28;20040;-89
2024/02/29 04:58:04;;;;;;;16.40;11.90;;;;;;;15.09;89.64;100297.66;5114393;28;20036;-89
2024/02/29 05:01:09;;;;;;;20.50;12.63;;;;;;;15.23;89.29;100302.44;5114352;28;20047;-91
2024/02/29 05:04:13;;;;;;;20.13;12.73;;;;;;;15.01;90.06;100298.47;5116304;28;20044;-90
2024/02/29 05:07:17;;;;;;;15.07;12.02;;;;;;;15.20;89.41;100300.91;5118188;28;20048;-90
2024/02/29 05:10:22;;;;;;;18.83;12.57;;;;;;;15.28;89.25;100303.63;5117875;28;20470;-88
2024/02/29 05:13:27;;;;;;;20.13;11.95;;;;;;;15.49;87.81;100301.31;5118581;28;20052;-91
2024/02/29 05:16:31;;;;;;;17.58;13.07;;;;;;;15.30;89.03;100296.22;5117543;28;20040;-79
2024/02/29 05:19:37;;;;;;;17.30;11.25;;;;;;;15.17;89.11;100285.00;5096963;28;20044;-81
2024/02/29 05:22:43;;;;;;;14.13;11.32;;;;;;;15.07;89.98;100275.34;5097446;28;20040;-89
2024/02/29 05:25:47;;;;;;;24.60;12.50;;;;;;;15.03;89.75;100282.97;5084829;28;20040;-83
2024/02/29 05:28:53;;;;;;;20.17;12.63;;;;;;;15.20;89.42;100289.25;5096994;28;20387;-82
2024/02/29 05:31:58;;;;;;;18.63;12.27;;;;;;;15.22;89.11;100287.22;5097532;28;20036;-84
2024/02/29 05:35:03;;;;;;;21.15;13.05;;;;;;;15.24;88.72;100290.59;5097083;28;20036;-89
2024/02/29 05:38:07;;;;;;;18.92;11.40;;;;;;;15.22;88.26;100281.81;5097135;28;20068;-85
2024/02/29 05:41:12;;;;;;;17.83;11.85;;;;;;;14.98;89.25;100278.06;5096905;28;20383;-90
2024/02/29 05:44:17;;;;;;;14.55;11.63;;;;;;;14.93;89.73;100283.09;5096802;28;20343;-87
2024/02/29 05:47:22;;;;;;;14.70;11.50;;;;;;;14.76;90.26;100281.31;5084295;28;20044;-89
2024/02/29 05:50:26;;;;;;;17.30;12.25;;;;;;;15.00;89.32;100275.16;5093409;28;20049;-87
2024/02/29 05:53:31;;;;;;;16.45;11.85;;;;;;;15.16;88.77;100277.91;5083806;28;20040;-84
2024/02/29 05:56:36;;;;;;;23.13;15.98;;;;;;;14.86;89.14;100287.44;5096604;28;20047;-90
2024/02/29 05:59:41;;;;;;;16.55;11.55;;;;;;;14.81;89.27;100287.09;5096955;28;20044;-89
2024/02/29 06:02:45;;;;;;;20.38;13.27;;;;;;;14.87;89.61;100282.91;5096476;28;20044;-86
2024/02/29 06:05:50;;;;;;;17.17;11.73;;;;;;;14.73;90.46;100286.22;5096402;28;20052;-88
2024/02/29 06:08:55;;;;;;;15.85;11.85;;;;;;;15.05;88.65;100278.22;5095992;28;20052;-88
2024/02/29 06:12:01;;;;;;;18.95;12.70;;;;;;;15.02;88.46;100285.81;5096150;28;20395;-90
2024/02/29 06:15:06;;;;;;;18.40;11.50;;;;;;;14.94;88.51;100295.59;5094954;28;20048;-87
2024/02/29 06:18:13;;;;;;;17.63;11.35;;;;;;;14.79;90.28;100283.72;5096096;28;20044;-84
2024/02/29 06:21:17;;;;;;;16.27;11.98;;;;;;;14.61;91.14;100293.78;5095604;28;20048;-84
2024/02/29 06:24:22;;;;;;;17.85;11.07;;;;;;;14.93;89.58;100295.75;5095776;28;20040;-86
2024/02/29 06:27:26;;;;;;;25.25;12.73;;;;;;;14.95;90.05;100300.00;5094002;28;20376;-84
2024/02/29 06:30:33;;;;;;;23.23;13.55;;;;;;;14.86;90.09;100295.56;5094251;28;20478;-83
2024/02/29 06:33:39;;;;;;;25.33;12.63;;;;;;;15.09;89.73;100303.06;5095591;28;20047;-82
2024/02/29 06:36:44;;;;;;;14.43;12.07;;;;;;;15.12;89.27;100300.03;5095582;28;20048;-86
2024/02/29 06:39:52;;;;;;;16.05;11.68;;;;;;;15.09;89.20;100303.06;5096191;28;20040;-79
2024/02/29 06:42:59;;;;;;;16.73;13.15;;;;;;;15.06;89.98;100315.03;5095508;28;20040;-82
2024/02/29 06:46:05;;;;;;;17.30;11.95;;;;;;;15.07;89.12;100311.34;5095320;28;20052;-83
2024/02/29 06:49:10;;;;;;;18.67;12.63;;;;;;;15.17;89.73;100317.47;5095218;28;20043;-82
2024/02/29 06:52:14;;;;;;;22.55;14.77;;;;;;;15.27;88.91;100306.50;5093674;28;20048;-83
2024/02/29 06:55:19;;;;;;;33.45;23.55;;;;;;;15.27;89.21;100311.91;5094742;28;20474;-85
2024/02/29 06:58:28;;;;;;;24.00;15.80;;;;;;;15.43;88.49;100317.38;5095359;28;20036;-84
2024/02/29 07:01:32;;;;;;;17.58;12.77;;;;;;;15.49;88.59;100316.72;5033072;28;20050;-82
2024/02/29 07:04:37;;;;;;;18.15;12.20;;;;;;;15.57;87.81;100314.03;5033023;28;20460;-91
2024/02/29 07:07:43;;;;;;;17.38;12.60;;;;;;;15.58;88.16;100305.72;5047857;28;20045;-85
2024/02/29 07:10:48;;;;;;;21.90;12.95;;;;;;;15.40;88.96;100313.13;5049945;28;20052;-85
2024/02/29 07:13:53;;;;;;;16.00;12.77;;;;;;;15.26;89.08;100318.31;5051860;28;20622;-89
2024/02/29 07:16:57;;;;;;;19.27;12.68;;;;;;;15.08;90.09;100325.72;5052341;28;20044;-87
2024/02/29 07:20:04;;;;;;;17.88;13.27;;;;;;;15.35;89.52;100320.91;5051202;28;20052;-90
2024/02/29 07:23:10;;;;;;;20.77;13.02;;;;;;;15.55;88.91;100322.28;5052679;28;20489;-85
2024/02/29 07:26:15;;;;;;;18.25;12.90;;;;;;;15.72;88.49;100317.75;5051999;28;20500;-84
2024/02/29 07:29:20;;;;;;;18.52;13.18;;;;;;;15.99;88.14;100303.03;5051840;28;20048;-88
2024/02/29 07:32:24;;;;;;;16.88;12.93;;;;;;;15.61;89.69;100309.97;5094111;28;20048;-88
2024/02/29 07:35:30;;;;;;;15.60;12.68;;;;;;;15.93;88.10;100320.78;5113493;28;20482;-79
2024/02/29 07:38:35;;;;;;;21.45;14.20;;;;;;;15.95;88.00;100318.75;5113399;28;20047;-76
2024/02/29 07:41:40;;;;;;;26.00;15.68;;;;;;;15.92;88.26;100320.97;5114666;28;20043;-73
2024/02/29 07:44:45;;;;;;;24.23;13.95;;;;;;;16.08;87.59;100319.09;5113621;28;20107;-88
2024/02/29 07:47:50;;;;;;;17.65;13.98;;;;;;;16.01;87.27;100320.78;5112125;28;20048;-89
2024/02/29 07:50:55;;;;;;;23.20;14.38;;;;;;;15.98;87.12;100325.69;5112470;28;20047;-87
2024/02/29 07:54:01;;;;;;;22.42;13.20;;;;;;;15.98;87.42;100314.88;5112445;28;20047;-87
2024/02/29 07:57:06;;;;;;;16.23;12.23;;;;;;;15.98;87.22;100314.88;5112522;28;20043;-87
2024/02/29 08:00:11;;;;;;;20.80;11.68;;;;;;;15.91;87.55;100320.13;5112349;28;20439;-85
2024/02/29 08:03:16;;;;;;;16.80;11.02;;;;;;;16.14;86.44;100318.44;5115740;28;20048;-89
2024/02/29 08:06:21;;;;;;;17.10;11.45;;;;;;;16.17;85.27;100312.63;5115602;28;20051;-82
2024/02/29 08:09:26;;;;;;;17.58;11.10;;;;;;;16.01;86.16;100318.09;5115262;28;20051;-85
2024/02/29 08:12:31;;;;;;;14.90;11.02;;;;;;;16.08;86.50;100319.09;5114128;28;20047;-83
2024/02/29 08:15:35;;;;;;;19.67;12.80;;;;;;;16.15;86.64;100319.25;5114263;28;20052;-82
2024/02/29 08:18:40;;;;;;;17.33;11.65;;;;;;;15.98;88.10;100323.00;5101527;28;20028;-80
2024/02/29 08:21:44;;;;;;;17.92;12.15;;;;;;;16.23;86.79;100322.81;5101504;28;20043;-79
2024/02/29 08:24:48;;;;;;;18.88;11.50;;;;;;;16.46;85.94;100330.22;5113847;28;20036;-80
2024/02/29 08:27:53;;;;;;;19.63;12.15;;;;;;;16.04;86.98;100328.59;5101174;28;20389;-78
2024/02/29 08:30:58;;;;;;;17.23;13.15;;;;;;;15.92;86.72;100329.09;5112950;28;20048;-80
2024/02/29 08:34:02;;;;;;;15.88;10.88;;;;;;;15.88;87.63;100328.56;5101107;28;20393;-85
2024/02/29 08:37:07;;;;;;;21.50;12.55;;;;;;;15.79;87.64;100335.00;5113671;28;20047;-82
2024/02/29 08:40:12;;;;;;;15.82;10.95;;;;;;;15.86;86.90;100319.78;5117574;28;20043;-82
2024/02/29 08:43:19;;;;;;;21.17;12.40;;;;;;;15.95;86.27;100317.94;5117938;28;20474;-82
2024/02/29 08:46:23;;;;;;;18.60;10.93;;;;;;;15.86;86.87;100324.34;5117888;28;20044;-82
2024/02/29 08:49:28;;;;;;;18.38;11.50;;;;;;;15.94;86.62;100322.50;5117982;28;20068;-83
2024/02/29 08:52:33;;;;;;;16.08;10.13;;;;;;;15.90;86.73;100321.13;5117403;28;20035;-85
2024/02/29 08:55:38;;;;;;;20.05;10.48;;;;;;;16.05;86.37;100315.88;5104902;28;20040;-78
2024/02/29 08:58:43;;;;;;;17.35;10.88;;;;;;;16.11;86.15;100305.22;5117701;28;20040;-84
2024/02/29 09:01:48;;;;;;;16.35;10.13;;;;;;;16.07;86.53;100306.56;5117447;28;20043;-83
2024/02/29 09:04:53;;;;;;;16.60;11.05;;;;;;;16.31;85.83;100300.28;5117641;28;20051;-85
2024/02/29 09:07:57;;;;;;;22.95;10.85;;;;;;;16.20;85.93;100295.19;5105298;28;20048;-81
2024/02/29 09:11:03;;;;;;;15.13;9.57;;;;;;;16.31;85.39;100292.16;5104745;28;20047;-80
2024/02/29 09:14:08;;;;;;;18.15;9.38;;;;;;;16.44;84.71;100303.31;5117374;28;20161;-80
2024/02/29 09:17:13;;;;;;;20.42;11.13;;;;;;;16.61;83.76;100304.97;5117053;28;20062;-79
2024/02/29 09:20:18;;;;;;;18.63;10.45;;;;;;;16.68;83.73;100299.69;5117211;28;20039;-77
2024/02/29 09:23:23;;;;;;;20.63;10.93;;;;;;;16.41;84.23;100300.94;5117062;28;20043;-78
2024/02/29 09:26:27;;;;;;;13.77;8.75;;;;;;;16.66;82.62;100296.31;5117045;28;20047;-77
2024/02/29 09:29:32;;;;;;;16.27;8.77;;;;;;;16.70;82.75;100303.06;5116133;28;20153;-77
2024/02/29 09:32:37;;;;;;;25.85;16.27;;;;;;;16.68;83.26;100305.09;5117141;28;20118;-77
2024/02/29 09:35:42;;;;;;;24.73;14.35;;;;;;;16.94;82.32;100302.94;5092767;28;20394;-77
2024/02/29 09:38:47;;;;;;;36.65;26.65;;;;;;;16.68;82.46;100300.53;5116952;28;20047;-82
2024/02/29 09:41:53;;;;;;;18.67;7.93;;;;;;;16.56;82.76;100299.22;5104747;28;20039;-85
2024/02/29 09:44:58;;;;;;;14.52;7.45;;;;;;;16.44;83.42;100300.59;5116778;28;20055;-86
2024/02/29 09:48:05;;;;;;;16.98;6.50;;;;;;;16.15;84.29;100311.13;5116761;28;20050;-85
2024/02/29 09:51:14;;;;;;;15.82;7.95;;;;;;;16.38;83.71;100305.84;5115016;28;20054;-87
2024/02/29 09:54:20;;;;;;;12.63;6.32;;;;;;;16.37;83.20;100296.84;5116288;28;20062;-85
2024/02/29 09:57:25;;;;;;;14.32;7.03;;;;;;;16.46;83.03;100305.81;5116656;28;20058;-87
2024/02/29 10:00:31;;;;;;;16.98;6.82;;;;;;;16.29;83.98;100300.44;5116817;28;20042;-84
2024/02/29 10:03:36;;;;;;;17.67;6.85;;;;;;;16.24;83.86;100297.38;5116670;28;20047;-86
2024/02/29 10:06:41;;;;;;;14.00;7.90;;;;;;;16.15;85.01;100303.00;5116228;28;20051;-84
2024/02/29 10:09:46;;;;;;;14.27;6.38;;;;;;;16.05;85.15;100303.19;5115558;28;20510;-85
2024/02/29 10:12:57;;;;;;;17.83;7.47;;;;;;;16.27;84.20;100296.19;5116307;28;20058;-84
2024/02/29 10:16:02;;;;;;;13.02;6.55;;;;;;;16.32;84.85;100298.41;5103807;28;20094;-85
2024/02/29 10:19:12;;;;;;;11.15;6.95;;;;;;;16.33;84.81;100303.66;5116560;28;20071;-76
2024/02/29 10:22:21;;;;;;;16.08;7.38;;;;;;;16.17;85.52;100301.81;5116413;28;20055;-75
2024/02/29 10:25:26;;;;;;;15.23;6.78;;;;;;;16.48;85.09;100301.91;5116154;28;20059;-75
2024/02/29 10:28:31;;;;;;;15.68;6.97;;;;;;;16.92;83.27;100294.16;5116018;28;20058;-73
2024/02/29 10:31:36;;;;;;;16.92;7.53;;;;;;;17.13;83.06;100294.41;5115964;28;20054;-77
2024/02/29 10:34:41;;;;;;;10.07;7.47;;;;;;;17.16;82.60;100296.75;5116054;28;20058;-75
2024/02/29 10:37:47;;;;;;;14.43;7.10;;;;;;;17.20;82.92;100283.69;5115960;28;20047;-84
2024/02/29 10:41:00;;;;;;;11.38;7.13;;;;;;;17.50;81.22;100286.34;5115848;28;20055;-81
2024/02/29 10:44:08;;;;;;;14.98;7.35;;;;;;;17.61;80.65;100276.97;5115838;28;20485;-81
2024/02/29 10:47:14;;;;;;;11.98;7.50;;;;;;;17.62;81.69;100277.81;5115981;28;20489;-82
2024/02/29 10:50:29;;;;;;;20.23;8.27;;;;;;;17.61;81.66;100279.69;5115356;28;20387;-81
2024/02/29 10:53:54;;;;;;;15.27;7.65;;;;;;;17.59;83.38;100278.16;5115262;28;20051;-83
2024/02/29 10:56:59;;;;;;;15.38;7.05;;;;;;;17.73;82.12;100274.66;5073106;28;20040;-82
2024/02/29 11:00:05;;;;;;;16.42;5.90;;;;;;;17.74;81.16;100271.78;5061123;28;20064;-72
2024/02/29 11:03:12;;;;;;;13.55;6.20;;;;;;;17.25;83.84;100271.28;5072621;28;20056;-78
2024/02/29 11:06:18;;;;;;;9.93;5.70;;;;;;;17.50;82.97;100266.50;5072852;28;20052;-75
2024/02/29 11:09:25;;;;;;;15.73;5.50;;;;;;;17.26;82.87;100264.81;5072696;28;20048;-75
2024/02/29 11:12:29;;;;;;;15.57;6.65;;;;;;;17.26;84.52;100261.22;5072532;28;20051;-73
2024/02/29 11:15:43;;;;;;;13.93;6.00;;;;;;;17.22;85.09;100268.06;5072410;28;20052;-80
2024/02/29 11:18:48;;;;;;;11.82;6.38;;;;;;;16.90;86.58;100260.97;5072509;28;20183;-82
2024/02/29 11:21:53;;;;;;;10.88;6.15;;;;;;;16.92;86.96;100264.34;5072509;28;20427;-74
2024/02/29 11:24:59;;;;;;;13.32;6.10;;;;;;;16.95;89.82;100249.56;5072260;28;20063;-74
2024/02/29 11:28:04;;;;;;;18.38;6.93;;;;;;;17.12;89.66;100248.44;5072196;28;20159;-73
2024/02/29 11:31:17;;;;;;;11.15;6.57;;;;;;;17.08;89.46;100244.41;5071996;28;20067;-77
2024/02/29 11:34:21;;;;;;;15.70;6.63;;;;;;;17.11;89.18;100235.94;5101301;28;20046;-73
2024/02/29 11:37:29;;;;;;;13.70;6.78;;;;;;;17.22;88.17;100238.22;5102261;28;20482;-76
2024/02/29 11:40:35;;;;;;;12.10;6.00;;;;;;;17.09;88.72;100232.53;5114578;28;20376;-75
2024/02/29 11:43:41;;;;;;;12.10;6.32;;;;;;;16.89;89.07;100226.72;5114270;28;20493;-82
2024/02/29 11:46:49;;;;;;;13.18;6.13;;;;;;;17.09;88.41;100225.25;5101777;28;20447;-84
2024/02/29 11:49:59;;;;;;;8.63;6.07;;;;;;;17.30;87.82;100217.31;5101967;28;20050;-90
2024/02/29 11:53:03;;;;;;;12.57;6.88;;;;;;;17.24;88.34;100217.16;5102188;28;20493;-88
2024/02/29 11:56:09;;;;;;;14.98;6.07;;;;;;;17.24;89.04;100218.03;5114374;28;20070;-74
2024/02/29 11:59:15;;;;;;;11.82;7.05;;;;;;;17.34;88.70;100210.50;5114365;28;20051;-74
2024/02/29 12:02:20;;;;;;;13.38;6.53;;;;;;;17.48;87.76;100206.97;5101977;28;20078;-75
2024/02/29 12:05:25;;;;;;;11.32;6.20;;;;;;;17.53;86.85;100210.00;5114424;28;20043;-75
2024/02/29 12:08:30;;;;;;;10.38;6.32;;;;;;;17.46;87.43;100203.59;5114385;28;20047;-74
2024/02/29 12:11:35;;;;;;;11.13;5.70;;;;;;;17.59;87.15;100200.31;5114220;28;20051;-84
2024/02/29 12:14:42;;;;;;;12.95;6.13;;;;;;;17.24;87.93;100190.91;5114182;28;20393;-78
2024/02/29 12:17:47;;;;;;;10.65;6.55;;;;;;;17.27;89.01;100170.69;5114167;28;20059;-75
2024/02/29 12:20:52;;;;;;;9.13;6.50;;;;;;;17.19;89.85;100163.47;5114098;28;20055;-78
2024/02/29 12:23:57;;;;;;;10.38;6.65;;;;;;;17.58;88.70;100162.50;5114028;28;20070;-77
2024/02/29 12:27:02;;;;;;;11.90;6.45;;;;;;;17.78;88.06;100163.63;5114093;28;20054;-80
2024/02/29 12:30:08;;;;;;;10.90;6.35;;;;;;;17.73;87.99;100153.34;5114041;28;20051;-81
2024/02/29 12:33:13;;;;;;;25.15;10.50;;;;;;;17.70;88.17;100148.25;5114085;28;20089;-82
2024/02/29 12:36:18;;;;;;;12.07;6.65;;;;;;;17.80;87.36;100148.03;5114012;28;20047;-84
2024/02/29 12:39:23;;;;;;;10.02;6.03;;;;;;;17.62;88.10;100147.53;5114014;28;20474;-84
2024/02/29 12:42:28;;;;;;;9.75;5.72;;;;;;;17.68;87.53;100135.94;5114192;28;20047;-84
2024/02/29 12:45:33;;;;;;;10.93;6.38;;;;;;;17.55;88.04;100144.72;5101520;28;20054;-85
2024/02/29 12:48:38;;;;;;;11.77;5.90;;;;;;;17.29;88.70;100127.94;5113854;28;20485;-85
2024/02/29 12:51:43;;;;;;;9.98;5.22;;;;;;;17.24;89.56;100127.66;5113403;28;20062;-85
2024/02/29 12:54:49;;;;;;;10.93;6.90;;;;;;;17.36;89.36;100121.59;5113814;28;20055;-85
2024/02/29 12:57:53;;;;;;;11.45;6.78;;;;;;;17.39;89.06;100114.97;5113664;28;20051;-85
2024/02/29 13:01:05;;;;;;;11.15;6.70;;;;;;;17.32;89.08;100114.88;5113780;28;20047;-84
2024/02/29 13:04:10;;;;;;;9.18;6.13;;;;;;;17.45;88.53;100106.91;5112438;28;20062;-84
2024/02/29 13:07:15;;;;;;;9.70;5.85;;;;;;;17.50;89.02;100096.34;5114013;28;20070;-84
2024/02/29 13:10:22;;;;;;;7.60;6.22;;;;;;;17.42;89.04;100101.88;5113774;28;20074;-84
2024/02/29 13:13:27;;;;;;;9.57;6.07;;;;;;;17.45;89.40;100101.50;5113628;28;20567;-84
2024/02/29 13:16:32;;;;;;;10.95;6.30;;;;;;;17.73;88.22;100099.03;5113569;28;20070;-84
2024/02/29 13:19:37;;;;;;;16.30;7.13;;;;;;;17.65;88.29;100090.16;5113529;28;20102;-84
2024/02/29 13:22:41;;;;;;;9.70;6.22;;;;;;;17.59;88.41;100089.03;5113664;28;20054;-85
2024/02/29 13:25:48;;;;;;;10.32;6.05;;;;;;;17.34;89.22;100088.38;5116277;28;20059;-84
2024/02/29 13:28:52;;;;;;;13.18;6.63;;;;;;;17.22;89.81;100086.31;5117313;28;20051;-84
2024/02/29 13:31:57;;;;;;;7.00;5.97;;;;;;;17.26;89.85;100083.03;5116929;28;20046;-83
2024/02/29 13:35:01;;;;;;;10.68;6.50;;;;;;;17.24;89.95;100074.25;5116216;28;20054;-83
2024/02/29 13:38:06;;;;;;;11.00;6.53;;;;;;;17.32;89.32;100079.59;5117218;28;20066;-86
2024/02/29 13:41:11;;;;;;;12.00;5.63;;;;;;;17.31;89.47;100072.47;5117225;28;20055;-84
2024/02/29 13:44:16;;;;;;;9.48;6.20;;;;;;;17.29;89.61;100079.97;5117171;28;20482;-87
2024/02/29 13:47:20;;;;;;;9.00;6.82;;;;;;;17.24;89.80;100065.25;5104600;28;20378;-86
2024/02/29 13:50:24;;;;;;;13.93;7.05;;;;;;;17.21;90.43;100061.03;5116763;28;20050;-87
2024/02/29 13:53:29;;;;;;;12.07;6.30;;;;;;;17.34;90.17;100063.13;5116885;28;20047;-84
2024/02/29 13:56:34;;;;;;;11.65;6.13;;;;;;;17.50;89.48;100052.13;5116795;28;20058;-84
2024/02/29 13:59:38;;;;;;;11.10;6.55;;;;;;;17.56;89.23;100048.66;5116740;28;20059;-86
2024/02/29 14:02:44;;;;;;;10.60;7.10;;;;;;;17.56;88.69;100045.97;5116875;28;20054;-84
2024/02/29 14:05:52;;;;;;;9.52;6.25;;;;;;;17.62;88.29;100047.09;5116791;28;20050;-83